You are not logged in, Click here to log in
雅庫茨克機場 YKS / UEEE 雅庫茨克,俄羅斯。它有一條跑道(較舊的跑道作為廢棄飛機的停車場),每小時可容納700名乘客
ICAO: UEEE Country: 雅庫茨克,俄羅斯。它有一條跑道(較舊的跑道作為廢棄飛機的停車場),每小時可容納700名乘客
Latitude: 62.0933 Longitude: 129.771
Total Arrivals: 1 Total Departures: 0
Latest Arrival: GC7 (UHPP-UEEE)KE. CHIH-HAO Latest Departure: (-).
Scenery:
METAR : UEEE 211330Z 09001MPS 9999 SCT015 M33/M37 Q1015 R23L/450142 NOSIG RMK QFE752

雅庫茨克機場 YKS

You are accessing this site from IP address 18.206.12.79. Virtual Airline. CMS by phpVMS.Website designed by Zumeweb and edited by Theo Bearman.
There is 1 User(s) Online: | Lun Wang | and 5 Guest(s) Online.
All information on this site is for fight simulation purposes only. This site is for flight logging for pilots of Virtual Airline&模擬飛行論壇 FlySim only.